sensor_id;sensor_type;location;lat;lon;timestamp;P1;durP1;ratioP1;P2;durP2;ratioP2
6727;SDS011;3401;52.504;13.430;2022-07-09T00:01:17;1029.28;;;667.08;;
6727;SDS011;3401;52.504;13.430;2022-07-09T00:03:45;1053.10;;;703.67;;
6727;SDS011;3401;52.504;13.430;2022-07-09T00:06:25;1032.90;;;697.05;;
6727;SDS011;3401;52.504;13.430;2022-07-09T00:08:52;1032.90;;;296.08;;
6727;SDS011;3401;52.504;13.430;2022-07-09T00:11:26;1081.50;;;787.25;;
6727;SDS011;3401;52.504;13.430;2022-07-09T00:13:56;1026.90;;;722.78;;
6727;SDS011;3401;52.504;13.430;2022-07-09T00:16:27;1051.85;;;814.70;;
6727;SDS011;3401;52.504;13.430;2022-07-09T00:18:54;928.47;;;350.63;;
6727;SDS011;3401;52.504;13.430;2022-07-09T00:21:22;1030.07;;;601.60;;
6727;SDS011;3401;52.504;13.430;2022-07-09T00:23:50;1040.93;;;694.08;;
6727;SDS011;3401;52.504;13.430;2022-07-09T00:26:21;1063.25;;;799.72;;
6727;SDS011;3401;52.504;13.430;2022-07-09T00:28:49;1017.17;;;666.50;;
6727;SDS011;3401;52.504;13.430;2022-07-09T00:31:31;998.67;;;618.83;;
6727;SDS011;3401;52.504;13.430;2022-07-09T00:33:59;900.15;;;448.63;;
6727;SDS011;3401;52.504;13.430;2022-07-09T00:36:26;758.28;;;186.05;;
6727;SDS011;3401;52.504;13.430;2022-07-09T00:38:54;919.53;;;453.33;;
6727;SDS011;3401;52.504;13.430;2022-07-09T00:41:22;879.22;;;452.55;;
6727;SDS011;3401;52.504;13.430;2022-07-09T00:43:50;946.38;;;343.17;;
6727;SDS011;3401;52.504;13.430;2022-07-09T00:46:21;960.75;;;330.45;;
6727;SDS011;3401;52.504;13.430;2022-07-09T00:48:50;932.60;;;263.33;;
6727;SDS011;3401;52.504;13.430;2022-07-09T00:51:18;934.85;;;317.60;;
6727;SDS011;3401;52.504;13.430;2022-07-09T00:53:47;828.47;;;219.75;;
6727;SDS011;3401;52.504;13.430;2022-07-09T00:56:24;939.05;;;490.25;;
6727;SDS011;3401;52.504;13.430;2022-07-09T00:58:52;741.75;;;220.98;;
6727;SDS011;3401;52.504;13.430;2022-07-09T01:01:20;834.50;;;212.60;;
6727;SDS011;3401;52.504;13.430;2022-07-09T01:03:48;702.35;;;163.35;;
6727;SDS011;3401;52.504;13.430;2022-07-09T01:06:23;976.97;;;533.95;;
6727;SDS011;3401;52.504;13.430;2022-07-09T01:08:51;932.67;;;383.27;;
6727;SDS011;3401;52.504;13.430;2022-07-09T01:11:25;683.85;;;176.68;;
6727;SDS011;3401;52.504;13.430;2022-07-09T01:13:53;1053.22;;;696.63;;
6727;SDS011;3401;52.504;13.430;2022-07-09T01:16:29;942.95;;;391.58;;
6727;SDS011;3401;52.504;13.430;2022-07-09T01:18:58;765.10;;;183.75;;
6727;SDS011;3401;52.504;13.430;2022-07-09T01:21:27;773.70;;;266.33;;
6727;SDS011;3401;52.504;13.430;2022-07-09T01:23:55;906.70;;;248.40;;
6727;SDS011;3401;52.504;13.430;2022-07-09T01:26:23;964.65;;;294.98;;
6727;SDS011;3401;52.504;13.430;2022-07-09T01:28:51;894.05;;;246.95;;
6727;SDS011;3401;52.504;13.430;2022-07-09T01:31:22;856.35;;;433.23;;
6727;SDS011;3401;52.504;13.430;2022-07-09T01:33:50;987.95;;;484.35;;
6727;SDS011;3401;52.504;13.430;2022-07-09T01:36:31;921.95;;;337.35;;
6727;SDS011;3401;52.504;13.430;2022-07-09T01:39:00;978.83;;;323.50;;
6727;SDS011;3401;52.504;13.430;2022-07-09T01:41:37;1120.30;;;672.60;;
6727;SDS011;3401;52.504;13.430;2022-07-09T01:44:05;1139.43;;;745.35;;
6727;SDS011;3401;52.504;13.430;2022-07-09T01:46:34;1089.35;;;599.47;;
6727;SDS011;3401;52.504;13.430;2022-07-09T01:49:03;1155.90;;;623.42;;
6727;SDS011;3401;52.504;13.430;2022-07-09T01:51:34;1038.03;;;645.65;;
6727;SDS011;3401;52.504;13.430;2022-07-09T01:54:02;993.97;;;688.70;;
6727;SDS011;3401;52.504;13.430;2022-07-09T01:56:30;1043.90;;;777.35;;
6727;SDS011;3401;52.504;13.430;2022-07-09T01:58:59;1070.72;;;723.90;;
6727;SDS011;3401;52.504;13.430;2022-07-09T02:01:26;1114.55;;;829.78;;
6727;SDS011;3401;52.504;13.430;2022-07-09T02:03:54;1050.57;;;703.03;;
6727;SDS011;3401;52.504;13.430;2022-07-09T02:06:28;1040.07;;;702.15;;
6727;SDS011;3401;52.504;13.430;2022-07-09T02:08:58;1037.43;;;680.17;;
6727;SDS011;3401;52.504;13.430;2022-07-09T02:11:29;1001.35;;;660.95;;
6727;SDS011;3401;52.504;13.430;2022-07-09T02:13:57;1058.00;;;675.90;;
6727;SDS011;3401;52.504;13.430;2022-07-09T02:16:33;992.22;;;628.83;;
6727;SDS011;3401;52.504;13.430;2022-07-09T02:19:02;996.50;;;594.58;;
6727;SDS011;3401;52.504;13.430;2022-07-09T02:21:30;1030.30;;;704.80;;
6727;SDS011;3401;52.504;13.430;2022-07-09T02:23:59;1010.35;;;627.10;;
6727;SDS011;3401;52.504;13.430;2022-07-09T02:26:28;1007.10;;;682.13;;
6727;SDS011;3401;52.504;13.430;2022-07-09T02:28:56;996.72;;;636.00;;
6727;SDS011;3401;52.504;13.430;2022-07-09T02:31:30;1057.93;;;708.20;;
6727;SDS011;3401;52.504;13.430;2022-07-09T02:33:58;1080.97;;;679.40;;
6727;SDS011;3401;52.504;13.430;2022-07-09T02:36:38;1076.23;;;769.53;;
6727;SDS011;3401;52.504;13.430;2022-07-09T02:39:10;939.50;;;776.33;;
6727;SDS011;3401;52.504;13.430;2022-07-09T02:41:38;953.30;;;403.63;;
6727;SDS011;3401;52.504;13.430;2022-07-09T02:44:06;1036.00;;;568.60;;
6727;SDS011;3401;52.504;13.430;2022-07-09T02:46:34;861.38;;;232.13;;
6727;SDS011;3401;52.504;13.430;2022-07-09T02:49:02;772.00;;;178.60;;
6727;SDS011;3401;52.504;13.430;2022-07-09T02:51:30;713.03;;;177.75;;
6727;SDS011;3401;52.504;13.430;2022-07-09T02:53:58;871.50;;;338.25;;
6727;SDS011;3401;52.504;13.430;2022-07-09T02:56:27;985.88;;;576.97;;
6727;SDS011;3401;52.504;13.430;2022-07-09T02:58:55;719.00;;;161.40;;
6727;SDS011;3401;52.504;13.430;2022-07-09T03:01:25;743.38;;;202.40;;
6727;SDS011;3401;52.504;13.430;2022-07-09T03:03:54;984.55;;;625.97;;
6727;SDS011;3401;52.504;13.430;2022-07-09T03:06:34;984.05;;;598.15;;
6727;SDS011;3401;52.504;13.430;2022-07-09T03:09:01;696.53;;;155.90;;
6727;SDS011;3401;52.504;13.430;2022-07-09T03:11:40;723.65;;;210.07;;
6727;SDS011;3401;52.504;13.430;2022-07-09T03:14:08;954.75;;;597.90;;
6727;SDS011;3401;52.504;13.430;2022-07-09T03:16:35;981.38;;;595.95;;
6727;SDS011;3401;52.504;13.430;2022-07-09T03:19:03;941.25;;;445.27;;
6727;SDS011;3401;52.504;13.430;2022-07-09T03:21:43;925.88;;;513.25;;
6727;SDS011;3401;52.504;13.430;2022-07-09T03:24:11;1027.15;;;648.40;;
6727;SDS011;3401;52.504;13.430;2022-07-09T03:26:41;731.30;;;216.55;;
6727;SDS011;3401;52.504;13.430;2022-07-09T03:29:09;1030.03;;;656.75;;
6727;SDS011;3401;52.504;13.430;2022-07-09T03:31:37;1081.05;;;709.75;;
6727;SDS011;3401;52.504;13.430;2022-07-09T03:34:04;1070.43;;;774.33;;
6727;SDS011;3401;52.504;13.430;2022-07-09T03:36:33;983.75;;;645.42;;
6727;SDS011;3401;52.504;13.430;2022-07-09T03:39:01;983.70;;;619.80;;
6727;SDS011;3401;52.504;13.430;2022-07-09T03:41:35;1037.68;;;701.10;;
6727;SDS011;3401;52.504;13.430;2022-07-09T03:44:04;920.50;;;384.88;;
6727;SDS011;3401;52.504;13.430;2022-07-09T03:46:32;804.10;;;317.58;;
6727;SDS011;3401;52.504;13.430;2022-07-09T03:49:01;966.97;;;318.63;;
6727;SDS011;3401;52.504;13.430;2022-07-09T03:51:29;887.60;;;207.27;;
6727;SDS011;3401;52.504;13.430;2022-07-09T03:53:56;983.25;;;339.98;;
6727;SDS011;3401;52.504;13.430;2022-07-09T03:56:33;929.63;;;230.75;;
6727;SDS011;3401;52.504;13.430;2022-07-09T03:59:01;890.80;;;249.68;;
6727;SDS011;3401;52.504;13.430;2022-07-09T04:01:46;997.97;;;228.38;;
6727;SDS011;3401;52.504;13.430;2022-07-09T04:04:14;944.03;;;245.98;;
6727;SDS011;3401;52.504;13.430;2022-07-09T04:06:42;1030.63;;;329.90;;
6727;SDS011;3401;52.504;13.430;2022-07-09T04:09:10;755.47;;;172.13;;
6727;SDS011;3401;52.504;13.430;2022-07-09T04:11:38;881.15;;;287.48;;
6727;SDS011;3401;52.504;13.430;2022-07-09T04:14:06;915.35;;;284.45;;
6727;SDS011;3401;52.504;13.430;2022-07-09T04:16:37;867.20;;;218.00;;
6727;SDS011;3401;52.504;13.430;2022-07-09T04:19:06;840.83;;;220.30;;
6727;SDS011;3401;52.504;13.430;2022-07-09T04:24:28;959.90;;;375.27;;
6727;SDS011;3401;52.504;13.430;2022-07-09T04:26:56;988.45;;;323.23;;
6727;SDS011;3401;52.504;13.430;2022-07-09T04:29:24;851.72;;;241.07;;
6727;SDS011;3401;52.504;13.430;2022-07-09T04:31:52;904.25;;;258.05;;
6727;SDS011;3401;52.504;13.430;2022-07-09T04:34:21;841.50;;;290.40;;
6727;SDS011;3401;52.504;13.430;2022-07-09T04:36:49;781.97;;;290.73;;
6727;SDS011;3401;52.504;13.430;2022-07-09T04:39:17;856.00;;;206.02;;
6727;SDS011;3401;52.504;13.430;2022-07-09T04:41:45;811.13;;;205.85;;
6727;SDS011;3401;52.504;13.430;2022-07-09T04:44:13;798.83;;;196.52;;
6727;SDS011;3401;52.504;13.430;2022-07-09T04:46:42;729.22;;;162.93;;
6727;SDS011;3401;52.504;13.430;2022-07-09T04:49:10;747.55;;;178.55;;
6727;SDS011;3401;52.504;13.430;2022-07-09T04:51:39;797.78;;;203.55;;
6727;SDS011;3401;52.504;13.430;2022-07-09T04:54:07;727.42;;;161.63;;
6727;SDS011;3401;52.504;13.430;2022-07-09T04:56:35;528.92;;;116.97;;
6727;SDS011;3401;52.504;13.430;2022-07-09T04:59:03;646.95;;;154.13;;
6727;SDS011;3401;52.504;13.430;2022-07-09T05:01:34;651.15;;;148.75;;
6727;SDS011;3401;52.504;13.430;2022-07-09T05:04:02;624.22;;;130.07;;
6727;SDS011;3401;52.504;13.430;2022-07-09T05:06:30;579.88;;;123.15;;
6727;SDS011;3401;52.504;13.430;2022-07-09T05:08:59;262.33;;;60.97;;
6727;SDS011;3401;52.504;13.430;2022-07-09T05:14:41;1129.07;;;826.57;;
6727;SDS011;3401;52.504;13.430;2022-07-09T05:17:09;949.83;;;837.73;;
6727;SDS011;3401;52.504;13.430;2022-07-09T05:19:37;1065.50;;;836.43;;
6727;SDS011;3401;52.504;13.430;2022-07-09T05:22:14;753.03;;;317.10;;
6727;SDS011;3401;52.504;13.430;2022-07-09T05:24:43;917.70;;;628.90;;
6727;SDS011;3401;52.504;13.430;2022-07-09T05:27:11;1022.23;;;820.17;;
6727;SDS011;3401;52.504;13.430;2022-07-09T05:29:39;578.23;;;522.23;;
6727;SDS011;3401;52.504;13.430;2022-07-09T05:32:07;670.57;;;601.10;;
6727;SDS011;3401;52.504;13.430;2022-07-09T05:34:35;1111.93;;;861.63;;
6727;SDS011;3401;52.504;13.430;2022-07-09T05:37:03;751.90;;;293.48;;
6727;SDS011;3401;52.504;13.430;2022-07-09T05:39:38;742.35;;;249.55;;
6727;SDS011;3401;52.504;13.430;2022-07-09T05:42:08;115.45;;;35.10;;
6727;SDS011;3401;52.504;13.430;2022-07-09T05:44:36;86.57;;;30.85;;
6727;SDS011;3401;52.504;13.430;2022-07-09T05:47:04;67.85;;;27.83;;
6727;SDS011;3401;52.504;13.430;2022-07-09T05:49:32;66.28;;;28.25;;
6727;SDS011;3401;52.504;13.430;2022-07-09T05:52:01;78.13;;;20.83;;
6727;SDS011;3401;52.504;13.430;2022-07-09T05:54:29;100.78;;;31.77;;
6727;SDS011;3401;52.504;13.430;2022-07-09T05:56:57;161.57;;;40.80;;
6727;SDS011;3401;52.504;13.430;2022-07-09T05:59:27;151.82;;;41.63;;
6727;SDS011;3401;52.504;13.430;2022-07-09T06:01:55;120.97;;;35.35;;
6727;SDS011;3401;52.504;13.430;2022-07-09T06:04:23;61.28;;;27.90;;
6727;SDS011;3401;52.504;13.430;2022-07-09T06:06:51;118.97;;;35.47;;
6727;SDS011;3401;52.504;13.430;2022-07-09T06:09:18;133.40;;;39.15;;
6727;SDS011;3401;52.504;13.430;2022-07-09T06:11:53;128.15;;;36.75;;
6727;SDS011;3401;52.504;13.430;2022-07-09T06:14:21;135.95;;;35.67;;
6727;SDS011;3401;52.504;13.430;2022-07-09T06:16:54;144.05;;;38.03;;
6727;SDS011;3401;52.504;13.430;2022-07-09T06:19:23;96.95;;;26.42;;
6727;SDS011;3401;52.504;13.430;2022-07-09T06:21:51;130.40;;;38.58;;
6727;SDS011;3401;52.504;13.430;2022-07-09T06:24:18;153.43;;;42.38;;
6727;SDS011;3401;52.504;13.430;2022-07-09T06:27:02;93.07;;;33.35;;
6727;SDS011;3401;52.504;13.430;2022-07-09T06:29:30;913.87;;;816.93;;
6727;SDS011;3401;52.504;13.430;2022-07-09T06:31:59;206.57;;;54.90;;
6727;SDS011;3401;52.504;13.430;2022-07-09T06:34:27;160.10;;;55.80;;
6727;SDS011;3401;52.504;13.430;2022-07-09T06:36:55;153.23;;;40.03;;
6727;SDS011;3401;52.504;13.430;2022-07-09T06:39:23;102.45;;;28.73;;
6727;SDS011;3401;52.504;13.430;2022-07-09T06:42:08;76.78;;;29.50;;
6727;SDS011;3401;52.504;13.430;2022-07-09T06:44:36;55.20;;;26.77;;
6727;SDS011;3401;52.504;13.430;2022-07-09T06:47:18;80.82;;;31.98;;
6727;SDS011;3401;52.504;13.430;2022-07-09T06:49:45;103.15;;;34.88;;
6727;SDS011;3401;52.504;13.430;2022-07-09T06:52:13;54.30;;;26.60;;
6727;SDS011;3401;52.504;13.430;2022-07-09T06:54:41;55.67;;;26.52;;
6727;SDS011;3401;52.504;13.430;2022-07-09T06:57:09;50.35;;;26.92;;
6727;SDS011;3401;52.504;13.430;2022-07-09T06:59:38;49.08;;;25.60;;
6727;SDS011;3401;52.504;13.430;2022-07-09T07:02:06;46.70;;;25.80;;
6727;SDS011;3401;52.504;13.430;2022-07-09T07:04:35;47.17;;;25.65;;
6727;SDS011;3401;52.504;13.430;2022-07-09T07:07:12;39.38;;;23.45;;
6727;SDS011;3401;52.504;13.430;2022-07-09T07:09:40;70.68;;;29.25;;
6727;SDS011;3401;52.504;13.430;2022-07-09T07:12:23;153.43;;;39.38;;
6727;SDS011;3401;52.504;13.430;2022-07-09T07:14:51;154.82;;;39.10;;
6727;SDS011;3401;52.504;13.430;2022-07-09T07:17:34;154.48;;;40.17;;
6727;SDS011;3401;52.504;13.430;2022-07-09T07:20:04;143.80;;;38.15;;
6727;SDS011;3401;52.504;13.430;2022-07-09T07:22:35;130.95;;;36.25;;
6727;SDS011;3401;52.504;13.430;2022-07-09T07:25:03;129.75;;;36.05;;
6727;SDS011;3401;52.504;13.430;2022-07-09T07:27:32;76.30;;;27.45;;
6727;SDS011;3401;52.504;13.430;2022-07-09T07:29:59;27.00;;;19.88;;
6727;SDS011;3401;52.504;13.430;2022-07-09T07:32:27;28.90;;;21.00;;
6727;SDS011;3401;52.504;13.430;2022-07-09T07:34:56;23.25;;;18.35;;
6727;SDS011;3401;52.504;13.430;2022-07-09T07:37:43;23.00;;;18.30;;
6727;SDS011;3401;52.504;13.430;2022-07-09T07:40:11;22.48;;;18.15;;
6727;SDS011;3401;52.504;13.430;2022-07-09T07:42:40;23.00;;;18.50;;
6727;SDS011;3401;52.504;13.430;2022-07-09T07:45:08;21.75;;;18.65;;
6727;SDS011;3401;52.504;13.430;2022-07-09T07:47:42;86.90;;;28.40;;
6727;SDS011;3401;52.504;13.430;2022-07-09T07:50:10;145.25;;;40.63;;
6727;SDS011;3401;52.504;13.430;2022-07-09T07:52:38;137.45;;;40.92;;
6727;SDS011;3401;52.504;13.430;2022-07-09T07:55:13;110.82;;;35.13;;
6727;SDS011;3401;52.504;13.430;2022-07-09T07:57:41;93.18;;;27.98;;
6727;SDS011;3401;52.504;13.430;2022-07-09T08:00:10;86.15;;;28.10;;
6727;SDS011;3401;52.504;13.430;2022-07-09T08:02:38;115.47;;;40.72;;
6727;SDS011;3401;52.504;13.430;2022-07-09T08:05:06;123.22;;;37.45;;
6727;SDS011;3401;52.504;13.430;2022-07-09T08:07:35;117.20;;;37.13;;
6727;SDS011;3401;52.504;13.430;2022-07-09T08:10:03;110.53;;;35.30;;
6727;SDS011;3401;52.504;13.430;2022-07-09T08:12:48;72.20;;;26.10;;
6727;SDS011;3401;52.504;13.430;2022-07-09T08:15:16;102.20;;;33.80;;
6727;SDS011;3401;52.504;13.430;2022-07-09T08:17:44;126.25;;;39.78;;
6727;SDS011;3401;52.504;13.430;2022-07-09T08:20:12;125.82;;;36.90;;
6727;SDS011;3401;52.504;13.430;2022-07-09T08:22:51;142.53;;;41.33;;
6727;SDS011;3401;52.504;13.430;2022-07-09T08:25:19;139.15;;;38.30;;
6727;SDS011;3401;52.504;13.430;2022-07-09T08:27:49;131.73;;;38.45;;
6727;SDS011;3401;52.504;13.430;2022-07-09T08:30:16;92.32;;;28.52;;
6727;SDS011;3401;52.504;13.430;2022-07-09T08:32:53;125.28;;;36.03;;
6727;SDS011;3401;52.504;13.430;2022-07-09T08:35:21;115.90;;;34.85;;
6727;SDS011;3401;52.504;13.430;2022-07-09T08:37:51;131.68;;;36.70;;
6727;SDS011;3401;52.504;13.430;2022-07-09T08:43:50;139.23;;;38.67;;
6727;SDS011;3401;52.504;13.430;2022-07-09T08:46:18;121.88;;;35.55;;
6727;SDS011;3401;52.504;13.430;2022-07-09T08:48:46;103.23;;;34.40;;
6727;SDS011;3401;52.504;13.430;2022-07-09T08:51:14;119.45;;;34.25;;
6727;SDS011;3401;52.504;13.430;2022-07-09T08:53:43;112.72;;;33.72;;
6727;SDS011;3401;52.504;13.430;2022-07-09T08:56:11;120.13;;;37.53;;
6727;SDS011;3401;52.504;13.430;2022-07-09T08:58:39;104.07;;;34.17;;
6727;SDS011;3401;52.504;13.430;2022-07-09T09:01:08;112.63;;;37.10;;
6727;SDS011;3401;52.504;13.430;2022-07-09T09:03:40;121.47;;;36.80;;
6727;SDS011;3401;52.504;13.430;2022-07-09T09:06:09;91.38;;;31.48;;
6727;SDS011;3401;52.504;13.430;2022-07-09T09:08:38;101.13;;;34.33;;
6727;SDS011;3401;52.504;13.430;2022-07-09T09:11:08;67.65;;;25.98;;
6727;SDS011;3401;52.504;13.430;2022-07-09T09:13:40;122.63;;;37.75;;
6727;SDS011;3401;52.504;13.430;2022-07-09T09:16:10;102.77;;;30.40;;
6727;SDS011;3401;52.504;13.430;2022-07-09T09:18:40;117.03;;;35.43;;
6727;SDS011;3401;52.504;13.430;2022-07-09T09:21:09;102.13;;;32.07;;
6727;SDS011;3401;52.504;13.430;2022-07-09T09:23:38;75.63;;;28.17;;
6727;SDS011;3401;52.504;13.430;2022-07-09T09:26:07;95.37;;;32.30;;
6727;SDS011;3401;52.504;13.430;2022-07-09T09:28:44;112.47;;;34.97;;
6727;SDS011;3401;52.504;13.430;2022-07-09T09:31:24;95.63;;;32.03;;
6727;SDS011;3401;52.504;13.430;2022-07-09T09:33:53;16.73;;;15.33;;
6727;SDS011;3401;52.504;13.430;2022-07-09T09:36:29;20.00;;;17.90;;
6727;SDS011;3401;52.504;13.430;2022-07-09T09:39:07;25.80;;;19.03;;
6727;SDS011;3401;52.504;13.430;2022-07-09T09:41:39;28.73;;;19.87;;
6727;SDS011;3401;52.504;13.430;2022-07-09T09:44:08;28.80;;;19.97;;
6727;SDS011;3401;52.504;13.430;2022-07-09T09:46:39;25.27;;;19.00;;
6727;SDS011;3401;52.504;13.430;2022-07-09T09:49:08;25.60;;;19.20;;
6727;SDS011;3401;52.504;13.430;2022-07-09T09:51:38;27.03;;;19.73;;
6727;SDS011;3401;52.504;13.430;2022-07-09T09:54:11;27.57;;;19.40;;
6727;SDS011;3401;52.504;13.430;2022-07-09T09:56:41;26.95;;;19.75;;
6727;SDS011;3401;52.504;13.430;2022-07-09T09:59:09;22.47;;;18.17;;
6727;SDS011;3401;52.504;13.430;2022-07-09T10:01:38;21.97;;;18.40;;
6727;SDS011;3401;52.504;13.430;2022-07-09T10:04:08;20.77;;;18.03;;
6727;SDS011;3401;52.504;13.430;2022-07-09T10:06:36;20.30;;;17.77;;
6727;SDS011;3401;52.504;13.430;2022-07-09T10:09:05;20.80;;;17.90;;
6727;SDS011;3401;52.504;13.430;2022-07-09T10:11:37;22.20;;;18.03;;
6727;SDS011;3401;52.504;13.430;2022-07-09T10:14:07;20.93;;;17.70;;
6727;SDS011;3401;52.504;13.430;2022-07-09T10:16:35;20.93;;;17.70;;
6727;SDS011;3401;52.504;13.430;2022-07-09T10:19:06;57.43;;;20.73;;
6727;SDS011;3401;52.504;13.430;2022-07-09T10:21:34;116.37;;;36.30;;
6727;SDS011;3401;52.504;13.430;2022-07-09T10:24:04;111.53;;;35.47;;
6727;SDS011;3401;52.504;13.430;2022-07-09T10:26:36;118.28;;;35.70;;
6727;SDS011;3401;52.504;13.430;2022-07-09T10:29:17;78.63;;;27.50;;
6727;SDS011;3401;52.504;13.430;2022-07-09T10:31:45;119.82;;;35.45;;
6727;SDS011;3401;52.504;13.430;2022-07-09T10:34:20;107.00;;;31.63;;
6727;SDS011;3401;52.504;13.430;2022-07-09T10:36:56;126.05;;;35.20;;
6727;SDS011;3401;52.504;13.430;2022-07-09T10:39:25;130.00;;;38.67;;
6727;SDS011;3401;52.504;13.430;2022-07-09T10:42:00;93.80;;;32.05;;
6727;SDS011;3401;52.504;13.430;2022-07-09T10:44:33;108.00;;;33.83;;
6727;SDS011;3401;52.504;13.430;2022-07-09T10:47:01;114.43;;;35.72;;
6727;SDS011;3401;52.504;13.430;2022-07-09T10:49:31;145.13;;;38.72;;
6727;SDS011;3401;52.504;13.430;2022-07-09T10:52:02;72.18;;;28.33;;
6727;SDS011;3401;52.504;13.430;2022-07-09T10:54:32;108.13;;;33.77;;
6727;SDS011;3401;52.504;13.430;2022-07-09T10:57:00;86.83;;;28.03;;
6727;SDS011;3401;52.504;13.430;2022-07-09T10:59:28;119.88;;;35.97;;
6727;SDS011;3401;52.504;13.430;2022-07-09T11:01:56;96.30;;;32.60;;
6727;SDS011;3401;52.504;13.430;2022-07-09T11:04:25;88.65;;;29.95;;
6727;SDS011;3401;52.504;13.430;2022-07-09T11:06:58;86.60;;;30.35;;
6727;SDS011;3401;52.504;13.430;2022-07-09T11:09:27;100.90;;;31.85;;
6727;SDS011;3401;52.504;13.430;2022-07-09T11:11:56;81.15;;;28.52;;
6727;SDS011;3401;52.504;13.430;2022-07-09T11:14:24;69.83;;;29.03;;
6727;SDS011;3401;52.504;13.430;2022-07-09T11:16:53;91.83;;;30.97;;
6727;SDS011;3401;52.504;13.430;2022-07-09T11:19:21;83.20;;;30.30;;
6727;SDS011;3401;52.504;13.430;2022-07-09T11:21:49;71.90;;;29.47;;
6727;SDS011;3401;52.504;13.430;2022-07-09T11:24:19;89.13;;;30.77;;
6727;SDS011;3401;52.504;13.430;2022-07-09T11:26:49;82.97;;;30.70;;
6727;SDS011;3401;52.504;13.430;2022-07-09T11:29:17;82.07;;;29.93;;
6727;SDS011;3401;52.504;13.430;2022-07-09T11:31:45;83.97;;;31.63;;
6727;SDS011;3401;52.504;13.430;2022-07-09T11:34:14;96.47;;;30.67;;
6727;SDS011;3401;52.504;13.430;2022-07-09T11:36:43;94.23;;;41.23;;
6727;SDS011;3401;52.504;13.430;2022-07-09T11:39:23;80.95;;;31.10;;
6727;SDS011;3401;52.504;13.430;2022-07-09T11:41:53;67.50;;;26.53;;
6727;SDS011;3401;52.504;13.430;2022-07-09T11:44:22;74.97;;;28.83;;
6727;SDS011;3401;52.504;13.430;2022-07-09T11:47:03;656.17;;;512.20;;
6727;SDS011;3401;52.504;13.430;2022-07-09T11:49:33;90.87;;;32.83;;
6727;SDS011;3401;52.504;13.430;2022-07-09T11:52:02;90.77;;;31.03;;
6727;SDS011;3401;52.504;13.430;2022-07-09T11:54:32;82.13;;;30.50;;
6727;SDS011;3401;52.504;13.430;2022-07-09T11:57:01;75.32;;;29.92;;
6727;SDS011;3401;52.504;13.430;2022-07-09T11:59:29;92.20;;;31.33;;
6727;SDS011;3401;52.504;13.430;2022-07-09T12:01:59;80.50;;;27.70;;
6727;SDS011;3401;52.504;13.430;2022-07-09T12:04:29;92.65;;;32.38;;
6727;SDS011;3401;52.504;13.430;2022-07-09T12:06:58;93.50;;;32.20;;
6727;SDS011;3401;52.504;13.430;2022-07-09T12:09:29;17.00;;;15.40;;
6727;SDS011;3401;52.504;13.430;2022-07-09T12:11:59;82.60;;;30.63;;
6727;SDS011;3401;52.504;13.430;2022-07-09T12:14:27;84.37;;;28.73;;
6727;SDS011;3401;52.504;13.430;2022-07-09T12:16:56;91.37;;;30.80;;
6727;SDS011;3401;52.504;13.430;2022-07-09T12:19:24;89.43;;;31.20;;
6727;SDS011;3401;52.504;13.430;2022-07-09T12:21:52;84.67;;;29.67;;
6727;SDS011;3401;52.504;13.430;2022-07-09T12:24:24;30.97;;;18.80;;
6727;SDS011;3401;52.504;13.430;2022-07-09T12:26:52;19.37;;;17.37;;
6727;SDS011;3401;52.504;13.430;2022-07-09T12:29:41;18.60;;;16.70;;
6727;SDS011;3401;52.504;13.430;2022-07-09T12:32:09;19.30;;;17.30;;
6727;SDS011;3401;52.504;13.430;2022-07-09T12:34:37;18.33;;;16.43;;
6727;SDS011;3401;52.504;13.430;2022-07-09T12:37:05;18.50;;;16.60;;
6727;SDS011;3401;52.504;13.430;2022-07-09T12:39:33;18.70;;;16.80;;
6727;SDS011;3401;52.504;13.430;2022-07-09T12:42:01;18.03;;;16.23;;
6727;SDS011;3401;52.504;13.430;2022-07-09T12:44:30;17.80;;;16.00;;
6727;SDS011;3401;52.504;13.430;2022-07-09T12:46:59;17.40;;;15.70;;
6727;SDS011;3401;52.504;13.430;2022-07-09T12:49:27;17.77;;;16.03;;
6727;SDS011;3401;52.504;13.430;2022-07-09T12:51:55;17.20;;;15.50;;
6727;SDS011;3401;52.504;13.430;2022-07-09T12:54:23;17.03;;;15.43;;
6727;SDS011;3401;52.504;13.430;2022-07-09T12:56:54;27.80;;;20.57;;
6727;SDS011;3401;52.504;13.430;2022-07-09T12:59:37;22.38;;;18.58;;
6727;SDS011;3401;52.504;13.430;2022-07-09T13:02:07;166.57;;;41.80;;
6727;SDS011;3401;52.504;13.430;2022-07-09T13:04:35;181.45;;;49.05;;
6727;SDS011;3401;52.504;13.430;2022-07-09T13:07:03;147.65;;;38.90;;
6727;SDS011;3401;52.504;13.430;2022-07-09T13:09:31;139.43;;;38.17;;
6727;SDS011;3401;52.504;13.430;2022-07-09T13:12:00;123.43;;;36.65;;
6727;SDS011;3401;52.504;13.430;2022-07-09T13:14:28;122.68;;;34.97;;
6727;SDS011;3401;52.504;13.430;2022-07-09T13:16:57;47.63;;;24.95;;
6727;SDS011;3401;52.504;13.430;2022-07-09T13:19:46;49.05;;;26.17;;
6727;SDS011;3401;52.504;13.430;2022-07-09T13:22:15;47.78;;;26.10;;
6727;SDS011;3401;52.504;13.430;2022-07-09T13:24:42;60.03;;;26.80;;
6727;SDS011;3401;52.504;13.430;2022-07-09T13:27:10;112.88;;;33.40;;
6727;SDS011;3401;52.504;13.430;2022-07-09T13:29:39;112.80;;;33.92;;
6727;SDS011;3401;52.504;13.430;2022-07-09T13:32:07;114.57;;;35.10;;
6727;SDS011;3401;52.504;13.430;2022-07-09T13:34:35;100.78;;;34.95;;
6727;SDS011;3401;52.504;13.430;2022-07-09T13:37:05;998.00;;;747.20;;
6727;SDS011;3401;52.504;13.430;2022-07-09T13:39:32;1097.73;;;914.73;;
6727;SDS011;3401;52.504;13.430;2022-07-09T13:42:00;1081.57;;;828.37;;
6727;SDS011;3401;52.504;13.430;2022-07-09T13:44:28;1126.87;;;944.83;;
6727;SDS011;3401;52.504;13.430;2022-07-09T13:46:56;1154.78;;;925.97;;
6727;SDS011;3401;52.504;13.430;2022-07-09T13:49:24;1094.82;;;787.58;;
6727;SDS011;3401;52.504;13.430;2022-07-09T13:51:52;1118.90;;;954.17;;
6727;SDS011;3401;52.504;13.430;2022-07-09T13:54:21;1173.93;;;955.03;;
6727;SDS011;3401;52.504;13.430;2022-07-09T13:56:49;1144.20;;;903.37;;
6727;SDS011;3401;52.504;13.430;2022-07-09T13:59:17;1154.63;;;985.13;;
6727;SDS011;3401;52.504;13.430;2022-07-09T14:01:45;1159.35;;;921.15;;
6727;SDS011;3401;52.504;13.430;2022-07-09T14:04:12;1151.30;;;919.08;;
6727;SDS011;3401;52.504;13.430;2022-07-09T14:06:40;1133.50;;;880.83;;
6727;SDS011;3401;52.504;13.430;2022-07-09T14:09:12;1011.88;;;651.83;;
6727;SDS011;3401;52.504;13.430;2022-07-09T14:11:44;936.47;;;539.97;;
6727;SDS011;3401;52.504;13.430;2022-07-09T14:14:12;815.63;;;383.85;;
6727;SDS011;3401;52.504;13.430;2022-07-09T14:16:40;1057.38;;;721.28;;
6727;SDS011;3401;52.504;13.430;2022-07-09T14:19:08;1003.10;;;622.42;;
6727;SDS011;3401;52.504;13.430;2022-07-09T14:21:35;1088.40;;;840.63;;
6727;SDS011;3401;52.504;13.430;2022-07-09T14:24:10;319.08;;;136.73;;
6727;SDS011;3401;52.504;13.430;2022-07-09T14:26:38;58.25;;;27.23;;
6727;SDS011;3401;52.504;13.430;2022-07-09T14:29:09;100.35;;;32.10;;
6727;SDS011;3401;52.504;13.430;2022-07-09T14:31:37;52.38;;;26.63;;
6727;SDS011;3401;52.504;13.430;2022-07-09T14:34:05;61.83;;;29.42;;
6727;SDS011;3401;52.504;13.430;2022-07-09T14:36:33;56.83;;;27.08;;
6727;SDS011;3401;52.504;13.430;2022-07-09T14:39:01;56.33;;;27.40;;
6727;SDS011;3401;52.504;13.430;2022-07-09T14:41:29;118.53;;;37.40;;
6727;SDS011;3401;52.504;13.430;2022-07-09T14:43:57;124.20;;;36.13;;